sensor_id;sensor_type;location;lat;lon;timestamp;pressure;altitude;pressure_sealevel;temperature;humidity
66762;BME280;53672;48.176;16.338;2023-07-02T00:01:18;98406.00;;;18.84;54.01
66762;BME280;53672;48.176;16.338;2023-07-02T00:06:19;98408.84;;;18.94;53.65
66762;BME280;53672;48.176;16.338;2023-07-02T00:11:19;98405.56;;;19.02;53.51
66762;BME280;53672;48.176;16.338;2023-07-02T00:16:21;98396.72;;;19.10;52.57
66762;BME280;53672;48.176;16.338;2023-07-02T00:21:21;98396.84;;;19.25;52.34
66762;BME280;53672;48.176;16.338;2023-07-02T00:26:22;98400.25;;;19.32;52.12
66762;BME280;53672;48.176;16.338;2023-07-02T00:31:24;98406.38;;;19.34;52.69
66762;BME280;53672;48.176;16.338;2023-07-02T00:36:25;98402.47;;;19.30;53.79
66762;BME280;53672;48.176;16.338;2023-07-02T00:41:26;98408.00;;;19.25;52.95
66762;BME280;53672;48.176;16.338;2023-07-02T00:46:29;98409.63;;;19.21;52.69
66762;BME280;53672;48.176;16.338;2023-07-02T00:51:30;98408.88;;;19.36;53.50
66762;BME280;53672;48.176;16.338;2023-07-02T00:56:31;98408.13;;;19.51;52.93
66762;BME280;53672;48.176;16.338;2023-07-02T01:01:33;98403.19;;;19.68;51.82
66762;BME280;53672;48.176;16.338;2023-07-02T01:06:35;98410.47;;;19.79;51.83
66762;BME280;53672;48.176;16.338;2023-07-02T01:11:40;98408.88;;;19.88;51.51
66762;BME280;53672;48.176;16.338;2023-07-02T01:16:43;98405.78;;;19.89;51.09
66762;BME280;53672;48.176;16.338;2023-07-02T01:21:46;98415.81;;;19.90;51.08
66762;BME280;53672;48.176;16.338;2023-07-02T01:26:46;98409.97;;;19.87;51.31
66762;BME280;53672;48.176;16.338;2023-07-02T01:31:47;98409.94;;;19.82;51.80
66762;BME280;53672;48.176;16.338;2023-07-02T01:36:49;98404.88;;;19.69;51.75
66762;BME280;53672;48.176;16.338;2023-07-02T01:41:51;98414.28;;;19.58;52.33
66762;BME280;53672;48.176;16.338;2023-07-02T01:46:51;98405.31;;;19.46;52.68
66762;BME280;53672;48.176;16.338;2023-07-02T01:51:55;98405.81;;;19.32;53.08
66762;BME280;53672;48.176;16.338;2023-07-02T01:56:56;98397.88;;;19.19;53.76
66762;BME280;53672;48.176;16.338;2023-07-02T02:01:57;98405.03;;;19.05;53.99
66762;BME280;53672;48.176;16.338;2023-07-02T02:06:58;98399.41;;;18.95;54.51
66762;BME280;53672;48.176;16.338;2023-07-02T02:11:59;98412.97;;;18.87;55.13
66762;BME280;53672;48.176;16.338;2023-07-02T02:16:59;98412.34;;;18.80;55.01
66762;BME280;53672;48.176;16.338;2023-07-02T02:22:01;98412.78;;;18.66;55.79
66762;BME280;53672;48.176;16.338;2023-07-02T02:27:02;98415.75;;;18.55;55.93
66762;BME280;53672;48.176;16.338;2023-07-02T02:32:03;98424.09;;;18.55;55.90
66762;BME280;53672;48.176;16.338;2023-07-02T02:37:05;98424.06;;;18.28;56.39
66762;BME280;53672;48.176;16.338;2023-07-02T02:42:06;98422.13;;;18.02;57.34
66762;BME280;53672;48.176;16.338;2023-07-02T02:47:06;98416.97;;;17.89;58.08
66762;BME280;53672;48.176;16.338;2023-07-02T02:52:08;98414.84;;;17.74;58.46
66762;BME280;53672;48.176;16.338;2023-07-02T02:57:09;98425.91;;;17.69;59.17
66762;BME280;53672;48.176;16.338;2023-07-02T03:02:09;98416.06;;;17.62;59.06
66762;BME280;53672;48.176;16.338;2023-07-02T03:07:11;98433.06;;;17.65;59.09
66762;BME280;53672;48.176;16.338;2023-07-02T03:12:12;98426.66;;;17.65;59.04
66762;BME280;53672;48.176;16.338;2023-07-02T03:17:12;98423.91;;;17.65;59.57
66762;BME280;53672;48.176;16.338;2023-07-02T03:22:14;98430.53;;;17.64;59.36
66762;BME280;53672;48.176;16.338;2023-07-02T03:27:15;98432.47;;;17.85;58.11
66762;BME280;53672;48.176;16.338;2023-07-02T03:32:15;98431.09;;;18.09;57.87
66762;BME280;53672;48.176;16.338;2023-07-02T03:37:18;98436.94;;;18.34;56.76
66762;BME280;53672;48.176;16.338;2023-07-02T03:42:18;98442.97;;;18.53;56.17
66762;BME280;53672;48.176;16.338;2023-07-02T03:47:19;98451.50;;;18.73;56.00
66762;BME280;53672;48.176;16.338;2023-07-02T03:52:21;98447.47;;;18.91;55.58
66762;BME280;53672;48.176;16.338;2023-07-02T03:57:21;98448.53;;;19.16;54.93
66762;BME280;53672;48.176;16.338;2023-07-02T04:02:22;98461.75;;;19.36;54.51
66762;BME280;53672;48.176;16.338;2023-07-02T04:07:23;98460.75;;;19.52;54.21
66762;BME280;53672;48.176;16.338;2023-07-02T04:12:24;98463.06;;;19.70;53.82
66762;BME280;53672;48.176;16.338;2023-07-02T04:17:24;98473.41;;;19.75;53.96
66762;BME280;53672;48.176;16.338;2023-07-02T04:22:26;98479.53;;;19.77;54.22
66762;BME280;53672;48.176;16.338;2023-07-02T04:27:27;98477.09;;;19.85;54.00
66762;BME280;53672;48.176;16.338;2023-07-02T04:32:27;98483.50;;;19.91;54.72
66762;BME280;53672;48.176;16.338;2023-07-02T04:37:29;98480.69;;;19.86;55.44
66762;BME280;53672;48.176;16.338;2023-07-02T04:42:29;98508.56;;;19.86;55.87
66762;BME280;53672;48.176;16.338;2023-07-02T04:47:30;98514.72;;;19.88;56.45
66762;BME280;53672;48.176;16.338;2023-07-02T04:52:32;98508.59;;;19.91;57.11
66762;BME280;53672;48.176;16.338;2023-07-02T04:57:32;98519.47;;;19.97;57.02
66762;BME280;53672;48.176;16.338;2023-07-02T05:02:33;98525.38;;;20.01;57.51
66762;BME280;53672;48.176;16.338;2023-07-02T05:07:34;98512.84;;;20.03;57.57
66762;BME280;53672;48.176;16.338;2023-07-02T05:12:35;98517.91;;;20.12;57.86
66762;BME280;53672;48.176;16.338;2023-07-02T05:17:35;98521.56;;;20.17;57.94
66762;BME280;53672;48.176;16.338;2023-07-02T05:22:37;98527.59;;;19.99;58.51
66762;BME280;53672;48.176;16.338;2023-07-02T05:27:38;98528.97;;;19.96;59.31
66762;BME280;53672;48.176;16.338;2023-07-02T05:32:38;98538.91;;;19.82;60.09
66762;BME280;53672;48.176;16.338;2023-07-02T05:37:40;98552.59;;;19.89;59.91
66762;BME280;53672;48.176;16.338;2023-07-02T05:42:40;98567.97;;;19.96;60.40
66762;BME280;53672;48.176;16.338;2023-07-02T05:47:41;98570.47;;;19.98;60.66
66762;BME280;53672;48.176;16.338;2023-07-02T05:52:42;98582.31;;;20.15;60.23
66762;BME280;53672;48.176;16.338;2023-07-02T05:57:43;98582.88;;;20.17;60.33
66762;BME280;53672;48.176;16.338;2023-07-02T06:02:46;98576.72;;;20.10;60.92
66762;BME280;53672;48.176;16.338;2023-07-02T06:07:48;98594.09;;;20.32;60.84
66762;BME280;53672;48.176;16.338;2023-07-02T06:12:48;98594.69;;;20.39;60.90
66762;BME280;53672;48.176;16.338;2023-07-02T06:17:49;98609.31;;;20.66;60.41
66762;BME280;53672;48.176;16.338;2023-07-02T06:22:50;98618.81;;;20.75;59.38
66762;BME280;53672;48.176;16.338;2023-07-02T06:27:51;98615.84;;;20.92;59.13
66762;BME280;53672;48.176;16.338;2023-07-02T06:32:52;98625.13;;;21.18;58.28
66762;BME280;53672;48.176;16.338;2023-07-02T06:37:54;98620.63;;;21.12;58.27
66762;BME280;53672;48.176;16.338;2023-07-02T06:42:55;98623.44;;;21.17;58.27
66762;BME280;53672;48.176;16.338;2023-07-02T06:47:55;98619.28;;;21.34;57.39
66762;BME280;53672;48.176;16.338;2023-07-02T06:52:57;98616.22;;;21.36;57.25
66762;BME280;53672;48.176;16.338;2023-07-02T06:57:58;98626.31;;;21.67;56.97
66762;BME280;53672;48.176;16.338;2023-07-02T07:02:58;98624.59;;;22.01;55.70
66762;BME280;53672;48.176;16.338;2023-07-02T07:08:00;98625.88;;;22.59;55.18
66762;BME280;53672;48.176;16.338;2023-07-02T07:13:01;98618.28;;;23.29;52.72
66762;BME280;53672;48.176;16.338;2023-07-02T07:18:02;98621.63;;;23.31;50.52
66762;BME280;53672;48.176;16.338;2023-07-02T07:23:04;98630.44;;;23.87;50.42
66762;BME280;53672;48.176;16.338;2023-07-02T07:28:05;98618.63;;;23.95;49.22
66762;BME280;53672;48.176;16.338;2023-07-02T07:33:06;98618.38;;;23.52;49.04
66762;BME280;53672;48.176;16.338;2023-07-02T07:38:07;98624.38;;;23.75;49.21
66762;BME280;53672;48.176;16.338;2023-07-02T07:43:08;98626.88;;;24.10;49.08
66762;BME280;53672;48.176;16.338;2023-07-02T07:48:09;98622.00;;;24.73;47.40
66762;BME280;53672;48.176;16.338;2023-07-02T07:53:10;98627.59;;;24.49;46.20
66762;BME280;53672;48.176;16.338;2023-07-02T07:58:11;98622.91;;;24.68;46.09
66762;BME280;53672;48.176;16.338;2023-07-02T08:03:11;98623.38;;;25.18;44.21
66762;BME280;53672;48.176;16.338;2023-07-02T08:08:13;98621.31;;;24.81;45.46
66762;BME280;53672;48.176;16.338;2023-07-02T08:13:14;98613.41;;;25.07;45.28
66762;BME280;53672;48.176;16.338;2023-07-02T08:18:14;98605.78;;;25.49;44.52
66762;BME280;53672;48.176;16.338;2023-07-02T08:23:16;98593.47;;;25.27;44.14
66762;BME280;53672;48.176;16.338;2023-07-02T08:28:16;98596.69;;;25.90;42.36
66762;BME280;53672;48.176;16.338;2023-07-02T08:33:17;98605.50;;;26.02;42.11
66762;BME280;53672;48.176;16.338;2023-07-02T08:38:19;98605.22;;;26.30;40.95
66762;BME280;53672;48.176;16.338;2023-07-02T08:43:19;98610.19;;;26.39;40.25
66762;BME280;53672;48.176;16.338;2023-07-02T08:48:20;98618.84;;;25.78;41.96
66762;BME280;53672;48.176;16.338;2023-07-02T08:53:22;98618.66;;;26.20;40.82
66762;BME280;53672;48.176;16.338;2023-07-02T08:58:22;98603.00;;;27.01;39.62
66762;BME280;53672;48.176;16.338;2023-07-02T09:03:25;98607.38;;;27.42;37.22
66762;BME280;53672;48.176;16.338;2023-07-02T09:08:28;98611.75;;;27.48;37.56
66762;BME280;53672;48.176;16.338;2023-07-02T09:13:28;98615.47;;;28.15;37.20
66762;BME280;53672;48.176;16.338;2023-07-02T09:18:29;98599.63;;;29.15;34.67
66762;BME280;53672;48.176;16.338;2023-07-02T09:23:35;98594.84;;;28.15;36.06
66762;BME280;53672;48.176;16.338;2023-07-02T09:28:35;98594.63;;;28.03;35.73
66762;BME280;53672;48.176;16.338;2023-07-02T09:33:36;98599.63;;;28.06;36.07
66762;BME280;53672;48.176;16.338;2023-07-02T09:38:39;98602.97;;;27.50;36.45
66762;BME280;53672;48.176;16.338;2023-07-02T09:43:39;98605.41;;;28.01;35.65
66762;BME280;53672;48.176;16.338;2023-07-02T09:48:40;98605.81;;;28.16;35.82
66762;BME280;53672;48.176;16.338;2023-07-02T09:53:42;98613.88;;;27.29;36.74
66762;BME280;53672;48.176;16.338;2023-07-02T09:58:44;98625.44;;;26.33;38.47
66762;BME280;53672;48.176;16.338;2023-07-02T10:03:44;98634.03;;;25.58;40.68
66762;BME280;53672;48.176;16.338;2023-07-02T10:08:53;98639.91;;;25.24;40.90
66762;BME280;53672;48.176;16.338;2023-07-02T10:13:58;98649.22;;;25.57;41.09
66762;BME280;53672;48.176;16.338;2023-07-02T10:19:08;98652.28;;;26.11;38.79
66762;BME280;53672;48.176;16.338;2023-07-02T10:24:11;98647.75;;;26.29;39.05
66762;BME280;53672;48.176;16.338;2023-07-02T10:29:18;98647.69;;;27.43;37.12
66762;BME280;53672;48.176;16.338;2023-07-02T10:34:29;98645.75;;;30.35;31.42
66762;BME280;53672;48.176;16.338;2023-07-02T10:39:31;98632.16;;;31.51;28.17
66762;BME280;53672;48.176;16.338;2023-07-02T10:44:32;98629.19;;;31.89;27.98
66762;BME280;53672;48.176;16.338;2023-07-02T10:49:33;98625.47;;;30.97;29.56
66762;BME280;53672;48.176;16.338;2023-07-02T10:54:43;98621.16;;;28.77;33.31
66762;BME280;53672;48.176;16.338;2023-07-02T10:59:43;98627.63;;;28.47;34.33
66762;BME280;53672;48.176;16.338;2023-07-02T11:04:44;98621.38;;;28.58;33.79
66762;BME280;53672;48.176;16.338;2023-07-02T11:09:51;98636.69;;;27.69;34.74
66762;BME280;53672;48.176;16.338;2023-07-02T11:14:51;98623.63;;;26.96;36.21
66762;BME280;53672;48.176;16.338;2023-07-02T11:19:53;98638.09;;;27.44;36.27
66762;BME280;53672;48.176;16.338;2023-07-02T11:24:55;98645.03;;;27.11;36.81
66762;BME280;53672;48.176;16.338;2023-07-02T11:29:59;98638.78;;;27.00;36.22
66762;BME280;53672;48.176;16.338;2023-07-02T11:34:59;98637.72;;;27.23;35.51
66762;BME280;53672;48.176;16.338;2023-07-02T11:40:01;98640.88;;;29.16;32.73
66762;BME280;53672;48.176;16.338;2023-07-02T11:45:02;98640.13;;;28.54;33.14
66762;BME280;53672;48.176;16.338;2023-07-02T11:50:03;98631.16;;;28.30;33.73
66762;BME280;53672;48.176;16.338;2023-07-02T11:55:06;98652.75;;;28.04;34.17
66762;BME280;53672;48.176;16.338;2023-07-02T12:00:07;98659.84;;;28.01;33.42
66762;BME280;53672;48.176;16.338;2023-07-02T12:05:08;98665.69;;;28.05;34.31
66762;BME280;53672;48.176;16.338;2023-07-02T12:10:10;98650.13;;;29.39;31.22
66762;BME280;53672;48.176;16.338;2023-07-02T12:15:11;98666.28;;;29.08;31.67
66762;BME280;53672;48.176;16.338;2023-07-02T12:20:11;98676.72;;;30.66;29.35
66762;BME280;53672;48.176;16.338;2023-07-02T12:25:15;98656.88;;;31.42;27.60
66762;BME280;53672;48.176;16.338;2023-07-02T12:30:15;98658.47;;;31.81;26.61
66762;BME280;53672;48.176;16.338;2023-07-02T12:35:16;98657.38;;;31.52;27.72
66762;BME280;53672;48.176;16.338;2023-07-02T12:40:18;98662.81;;;30.18;29.27
66762;BME280;53672;48.176;16.338;2023-07-02T12:45:19;98656.06;;;30.66;28.92
66762;BME280;53672;48.176;16.338;2023-07-02T12:50:20;98657.66;;;32.01;27.48
66762;BME280;53672;48.176;16.338;2023-07-02T12:55:22;98656.84;;;32.33;26.84
66762;BME280;53672;48.176;16.338;2023-07-02T13:00:23;98650.19;;;31.46;27.59
66762;BME280;53672;48.176;16.338;2023-07-02T13:05:24;98651.69;;;31.52;26.84
66762;BME280;53672;48.176;16.338;2023-07-02T13:10:28;98660.19;;;31.52;27.15
66762;BME280;53672;48.176;16.338;2023-07-02T13:15:29;98678.41;;;30.67;27.74
66762;BME280;53672;48.176;16.338;2023-07-02T13:20:29;98666.28;;;29.81;29.84
66762;BME280;53672;48.176;16.338;2023-07-02T13:25:32;98647.78;;;29.49;30.10
66762;BME280;53672;48.176;16.338;2023-07-02T13:30:32;98654.78;;;29.60;30.41
66762;BME280;53672;48.176;16.338;2023-07-02T13:35:33;98658.50;;;29.13;31.13
66762;BME280;53672;48.176;16.338;2023-07-02T13:40:36;98653.94;;;28.86;30.89
66762;BME280;53672;48.176;16.338;2023-07-02T13:45:37;98654.75;;;27.54;34.04
66762;BME280;53672;48.176;16.338;2023-07-02T13:50:38;98660.47;;;27.13;34.62
66762;BME280;53672;48.176;16.338;2023-07-02T13:55:41;98669.00;;;26.81;34.78
66762;BME280;53672;48.176;16.338;2023-07-02T14:00:44;98666.59;;;26.61;36.01
66762;BME280;53672;48.176;16.338;2023-07-02T14:05:45;98681.19;;;26.17;36.07
66762;BME280;53672;48.176;16.338;2023-07-02T14:10:45;98681.41;;;25.88;37.20
66762;BME280;53672;48.176;16.338;2023-07-02T14:15:47;98673.09;;;25.78;37.65
66762;BME280;53672;48.176;16.338;2023-07-02T14:20:48;98666.72;;;25.54;37.36
66762;BME280;53672;48.176;16.338;2023-07-02T14:25:49;98671.03;;;25.28;38.08
66762;BME280;53672;48.176;16.338;2023-07-02T14:30:57;98657.09;;;25.18;38.43
66762;BME280;53672;48.176;16.338;2023-07-02T14:35:57;98672.22;;;25.40;37.59
66762;BME280;53672;48.176;16.338;2023-07-02T14:40:59;98663.81;;;25.22;37.33
66762;BME280;53672;48.176;16.338;2023-07-02T14:46:03;98676.03;;;25.31;38.21
66762;BME280;53672;48.176;16.338;2023-07-02T14:51:04;98661.66;;;25.14;37.54
66762;BME280;53672;48.176;16.338;2023-07-02T14:56:04;98666.31;;;25.00;37.45
66762;BME280;53672;48.176;16.338;2023-07-02T15:01:06;98679.81;;;24.74;38.06
66762;BME280;53672;48.176;16.338;2023-07-02T15:06:09;98678.38;;;24.76;38.54
66762;BME280;53672;48.176;16.338;2023-07-02T15:11:12;98671.00;;;24.62;36.70
66762;BME280;53672;48.176;16.338;2023-07-02T15:16:14;98675.38;;;24.44;37.44
66762;BME280;53672;48.176;16.338;2023-07-02T15:21:14;98673.19;;;24.36;37.72
66762;BME280;53672;48.176;16.338;2023-07-02T15:26:15;98664.25;;;24.34;38.48
66762;BME280;53672;48.176;16.338;2023-07-02T15:31:17;98680.44;;;24.13;39.59
66762;BME280;53672;48.176;16.338;2023-07-02T15:36:18;98688.31;;;24.11;40.04
66762;BME280;53672;48.176;16.338;2023-07-02T15:41:19;98680.00;;;23.58;41.03
66762;BME280;53672;48.176;16.338;2023-07-02T15:46:21;98688.66;;;23.61;40.88
66762;BME280;53672;48.176;16.338;2023-07-02T15:51:21;98691.16;;;23.63;40.99
66762;BME280;53672;48.176;16.338;2023-07-02T15:56:22;98691.16;;;23.63;40.52
66762;BME280;53672;48.176;16.338;2023-07-02T16:01:24;98692.59;;;23.60;40.47
66762;BME280;53672;48.176;16.338;2023-07-02T16:06:24;98699.69;;;23.47;40.60
66762;BME280;53672;48.176;16.338;2023-07-02T16:11:25;98684.34;;;23.35;41.50
66762;BME280;53672;48.176;16.338;2023-07-02T16:16:27;98693.63;;;23.25;41.33
66762;BME280;53672;48.176;16.338;2023-07-02T16:21:27;98693.66;;;23.20;41.44
66762;BME280;53672;48.176;16.338;2023-07-02T16:26:28;98700.63;;;23.28;41.62
66762;BME280;53672;48.176;16.338;2023-07-02T16:31:30;98692.88;;;23.15;41.54
66762;BME280;53672;48.176;16.338;2023-07-02T16:36:30;98686.72;;;23.13;41.98
66762;BME280;53672;48.176;16.338;2023-07-02T16:41:31;98693.72;;;23.00;42.26
66762;BME280;53672;48.176;16.338;2023-07-02T16:46:33;98686.47;;;22.99;41.77
66762;BME280;53672;48.176;16.338;2023-07-02T16:51:34;98699.63;;;22.99;41.32
66762;BME280;53672;48.176;16.338;2023-07-02T16:56:35;98697.13;;;22.92;40.71
66762;BME280;53672;48.176;16.338;2023-07-02T17:01:37;98707.78;;;22.85;41.22
66762;BME280;53672;48.176;16.338;2023-07-02T17:06:37;98706.97;;;22.79;41.17
66762;BME280;53672;48.176;16.338;2023-07-02T17:11:38;98714.25;;;22.75;41.69
66762;BME280;53672;48.176;16.338;2023-07-02T17:16:41;98715.41;;;22.69;41.65
66762;BME280;53672;48.176;16.338;2023-07-02T17:21:42;98708.09;;;22.78;41.90
66762;BME280;53672;48.176;16.338;2023-07-02T17:26:43;98714.25;;;22.70;42.51
66762;BME280;53672;48.176;16.338;2023-07-02T17:31:47;98712.06;;;22.67;42.22
66762;BME280;53672;48.176;16.338;2023-07-02T17:36:50;98706.47;;;22.57;42.52
66762;BME280;53672;48.176;16.338;2023-07-02T17:41:52;98718.53;;;22.48;42.75
66762;BME280;53672;48.176;16.338;2023-07-02T17:46:57;98723.56;;;22.46;43.08
66762;BME280;53672;48.176;16.338;2023-07-02T17:51:58;98727.50;;;22.35;43.09
66762;BME280;53672;48.176;16.338;2023-07-02T17:57:01;98726.06;;;22.32;43.36
66762;BME280;53672;48.176;16.338;2023-07-02T18:02:05;98729.41;;;22.24;43.72
66762;BME280;53672;48.176;16.338;2023-07-02T18:07:09;98732.50;;;22.23;44.33
66762;BME280;53672;48.176;16.338;2023-07-02T18:12:11;98737.28;;;22.17;44.65
66762;BME280;53672;48.176;16.338;2023-07-02T18:17:14;98738.13;;;22.12;45.56
66762;BME280;53672;48.176;16.338;2023-07-02T18:22:15;98743.69;;;22.17;45.31
66762;BME280;53672;48.176;16.338;2023-07-02T18:27:16;98741.72;;;22.13;45.13
66762;BME280;53672;48.176;16.338;2023-07-02T18:32:18;98745.38;;;22.08;45.48
66762;BME280;53672;48.176;16.338;2023-07-02T18:37:19;98748.16;;;21.93;45.76
66762;BME280;53672;48.176;16.338;2023-07-02T18:42:21;98747.56;;;21.76;46.62
66762;BME280;53672;48.176;16.338;2023-07-02T18:47:23;98762.09;;;21.68;46.64
66762;BME280;53672;48.176;16.338;2023-07-02T18:52:23;98754.19;;;21.50;47.61
66762;BME280;53672;48.176;16.338;2023-07-02T18:57:24;98759.72;;;21.35;47.96
66762;BME280;53672;48.176;16.338;2023-07-02T19:02:27;98767.53;;;21.23;48.39
66762;BME280;53672;48.176;16.338;2023-07-02T19:07:30;98782.84;;;21.15;48.40
66762;BME280;53672;48.176;16.338;2023-07-02T19:12:31;98785.00;;;21.03;49.23
66762;BME280;53672;48.176;16.338;2023-07-02T19:17:34;98789.69;;;20.93;49.77
66762;BME280;53672;48.176;16.338;2023-07-02T19:22:35;98790.44;;;20.83;49.94
66762;BME280;53672;48.176;16.338;2023-07-02T19:27:37;98790.41;;;20.78;50.33
66762;BME280;53672;48.176;16.338;2023-07-02T19:32:39;98798.44;;;20.69;50.72
66762;BME280;53672;48.176;16.338;2023-07-02T19:37:40;98803.13;;;20.64;50.93
66762;BME280;53672;48.176;16.338;2023-07-02T19:42:41;98795.91;;;20.63;50.90
66762;BME280;53672;48.176;16.338;2023-07-02T19:47:43;98815.41;;;20.63;50.84
66762;BME280;53672;48.176;16.338;2023-07-02T19:52:44;98817.25;;;20.47;51.47
66762;BME280;53672;48.176;16.338;2023-07-02T19:57:45;98816.09;;;20.43;51.99
66762;BME280;53672;48.176;16.338;2023-07-02T20:02:48;98822.16;;;20.35;52.31
66762;BME280;53672;48.176;16.338;2023-07-02T20:07:49;98818.75;;;20.28;52.55
66762;BME280;53672;48.176;16.338;2023-07-02T20:12:50;98820.09;;;20.21;52.73
66762;BME280;53672;48.176;16.338;2023-07-02T20:17:52;98815.84;;;20.13;52.86
66762;BME280;53672;48.176;16.338;2023-07-02T20:22:52;98828.56;;;20.04;53.24
66762;BME280;53672;48.176;16.338;2023-07-02T20:27:54;98839.94;;;20.02;53.77
66762;BME280;53672;48.176;16.338;2023-07-02T20:32:56;98837.09;;;19.97;53.62
66762;BME280;53672;48.176;16.338;2023-07-02T20:37:57;98840.94;;;19.91;53.66
66762;BME280;53672;48.176;16.338;2023-07-02T20:42:57;98840.59;;;19.83;54.11
66762;BME280;53672;48.176;16.338;2023-07-02T20:48:00;98837.16;;;19.76;54.31
66762;BME280;53672;48.176;16.338;2023-07-02T20:53:00;98854.31;;;19.68;54.65
66762;BME280;53672;48.176;16.338;2023-07-02T20:58:01;98857.59;;;19.60;55.09
66762;BME280;53672;48.176;16.338;2023-07-02T21:03:03;98855.03;;;19.58;55.26
66762;BME280;53672;48.176;16.338;2023-07-02T21:08:04;98864.19;;;19.54;55.61
66762;BME280;53672;48.176;16.338;2023-07-02T21:13:04;98860.25;;;19.50;55.41
66762;BME280;53672;48.176;16.338;2023-07-02T21:18:06;98870.78;;;19.48;55.42
66762;BME280;53672;48.176;16.338;2023-07-02T21:23:06;98868.78;;;19.43;55.65
66762;BME280;53672;48.176;16.338;2023-07-02T21:28:07;98873.19;;;19.39;55.84
66762;BME280;53672;48.176;16.338;2023-07-02T21:33:09;98875.63;;;19.35;55.84
66762;BME280;53672;48.176;16.338;2023-07-02T21:38:09;98879.19;;;19.31;56.09
66762;BME280;53672;48.176;16.338;2023-07-02T21:43:10;98881.66;;;19.27;56.45
66762;BME280;53672;48.176;16.338;2023-07-02T21:48:12;98884.09;;;19.24;56.41
66762;BME280;53672;48.176;16.338;2023-07-02T21:53:13;98888.75;;;19.18;56.77
66762;BME280;53672;48.176;16.338;2023-07-02T21:58:13;98891.72;;;19.12;56.94
66762;BME280;53672;48.176;16.338;2023-07-02T22:03:15;98899.97;;;19.07;57.27
66762;BME280;53672;48.176;16.338;2023-07-02T22:08:16;98896.84;;;19.03;57.59
66762;BME280;53672;48.176;16.338;2023-07-02T22:13:17;98902.38;;;18.98;57.56
66762;BME280;53672;48.176;16.338;2023-07-02T22:18:19;98898.06;;;18.91;58.04
66762;BME280;53672;48.176;16.338;2023-07-02T22:23:19;98903.81;;;18.84;57.95
66762;BME280;53672;48.176;16.338;2023-07-02T22:28:20;98911.03;;;18.85;58.26
66762;BME280;53672;48.176;16.338;2023-07-02T22:33:22;98905.84;;;18.89;58.06
66762;BME280;53672;48.176;16.338;2023-07-02T22:38:22;98910.81;;;18.87;58.05
66762;BME280;53672;48.176;16.338;2023-07-02T22:43:23;98911.72;;;18.92;57.89
66762;BME280;53672;48.176;16.338;2023-07-02T22:48:25;98917.03;;;18.94;58.12
66762;BME280;53672;48.176;16.338;2023-07-02T22:53:25;98902.41;;;19.03;57.97
66762;BME280;53672;48.176;16.338;2023-07-02T22:58:25;98906.81;;;18.99;57.63
66762;BME280;53672;48.176;16.338;2023-07-02T23:03:27;98914.41;;;18.87;58.26
66762;BME280;53672;48.176;16.338;2023-07-02T23:08:28;98908.78;;;18.82;58.03
66762;BME280;53672;48.176;16.338;2023-07-02T23:13:29;98906.25;;;18.81;58.13
66762;BME280;53672;48.176;16.338;2023-07-02T23:18:31;98905.84;;;18.72;58.69
66762;BME280;53672;48.176;16.338;2023-07-02T23:23:31;98907.34;;;18.63;58.63
66762;BME280;53672;48.176;16.338;2023-07-02T23:28:31;98908.88;;;18.54;58.85
66762;BME280;53672;48.176;16.338;2023-07-02T23:33:33;98906.00;;;18.49;59.11
66762;BME280;53672;48.176;16.338;2023-07-02T23:38:34;98905.91;;;18.44;59.11
66762;BME280;53672;48.176;16.338;2023-07-02T23:43:34;98905.31;;;18.42;59.25
66762;BME280;53672;48.176;16.338;2023-07-02T23:48:36;98900.88;;;18.41;59.33
66762;BME280;53672;48.176;16.338;2023-07-02T23:53:36;98896.88;;;18.37;59.42
66762;BME280;53672;48.176;16.338;2023-07-02T23:58:37;98894.00;;;18.32;59.48
